Kinoura — 3FHE5 — position and weather

sailwx.info

Track history (hours):
 
Tides and Currents Weather Stations Pressure Air Temp Water Temp Dewpoint Dewpoint Depression Visibility Wind Speed Wind Dir Waves Ship Positions

Kinoura

Last reported at 2018-Jan-20 04:54 UTC. Time now 2018-Jan-20 17:07 UTC.
Position N 30°59' E 122°30'.

Length 227 m; draft 6.9 m.

Type: Cargo ship. MMSI: 373041000.

Date/timePositionNaut miles runAvg speedWind from/ knotsBaromVisibWave heightAir tempDewpointWater temp
2018-Jan-20 04:54N 30°59' E 122°30'511.9
2018-Jan-20 04:30N 31°00' E 122°25'712.2
2018-Jan-20 03:57N 31°02' E 122°17'4 9.7
2018-Jan-20 03:30N 31°03' E 122°12'5 9.3
2018-Jan-20 03:00N 31°03' E 122°07'5 9.7
2018-Jan-20 02:30N 31°05' E 122°02'5 9.3
2018-Jan-20 02:00N 31°07' E 121°57'611.9
2018-Jan-20 01:30N 31°10' E 121°51'2112.8
2018-Jan-19 23:52N 31°24' E 121°33'4 8.9
2018-Jan-19 23:22N 31°27' E 121°28'3 8.7
2018-Jan-19 22:59N 31°29' E 121°26'4 8.5
2018-Jan-19 22:30N 31°32' E 121°22'4 8.9
2018-Jan-19 22:00N 31°35' E 121°18'612.7
2018-Jan-19 21:30N 31°39' E 121°13'612.1
2018-Jan-19 21:00N 31°43' E 121°07'32 9.8
2018-Jan-19 17:42N 32°00' E 120°35'313.1
2018-Jan-19 17:30N 32°01' E 120°32'613.1
2018-Jan-19 17:00N 32°01' E 120°24'  
Track history (hours):
 
Tides and Currents Weather Stations Pressure Air Temp Water Temp Dewpoint Dewpoint Depression Visibility Wind Speed Wind Dir Waves Ship Positions

Kinoura

Last reported at 2018-Jan-20 04:54 UTC. Time now 2018-Jan-20 17:07 UTC.
Position N 30°59' E 122°30'.

Length 227 m; draft 6.9 m.

Type: Cargo ship. MMSI: 373041000.

Date/timePositionNaut miles runAvg speedWind from/ knotsBaromVisibWave heightAir tempDewpointWater temp
2018-Jan-20 04:54N 30°59' E 122°30'511.9
2018-Jan-20 04:30N 31°00' E 122°25'712.2
2018-Jan-20 03:57N 31°02' E 122°17'4 9.7
2018-Jan-20 03:30N 31°03' E 122°12'5 9.3
2018-Jan-20 03:00N 31°03' E 122°07'5 9.7
2018-Jan-20 02:30N 31°05' E 122°02'5 9.3
2018-Jan-20 02:00N 31°07' E 121°57'611.9
2018-Jan-20 01:30N 31°10' E 121°51'2112.8
2018-Jan-19 23:52N 31°24' E 121°33'4 8.9
2018-Jan-19 23:22N 31°27' E 121°28'3 8.7
2018-Jan-19 22:59N 31°29' E 121°26'4 8.5
2018-Jan-19 22:30N 31°32' E 121°22'4 8.9
2018-Jan-19 22:00N 31°35' E 121°18'612.7
2018-Jan-19 21:30N 31°39' E 121°13'612.1
2018-Jan-19 21:00N 31°43' E 121°07'32 9.8
2018-Jan-19 17:42N 32°00' E 120°35'313.1
2018-Jan-19 17:30N 32°01' E 120°32'613.1
2018-Jan-19 17:00N 32°01' E 120°24'  

Dump ship's entire track history